Time,TemperatureF,DewpointF,PressureIn,WindDirection,WindDirectionDegrees,WindSpeedMPH,WindSpeedGustMPH,Humidity,HourlyPrecipIn,Conditions,Clouds,dailyrainin,SoftwareType,DateUTC
2013-01-27 00:01:00,54.3,53.2,30.26,NE,45,0.0,0.0,96,0.00,,,0.00,meteohub,2013-01-27 05:01:00,
2013-01-27 00:02:00,54.3,53.2,30.27,NE,45,0.0,0.0,96,0.00,,,0.00,meteohub,2013-01-27 05:02:00,
2013-01-27 00:03:00,54.3,53.4,30.27,NE,45,0.0,0.0,97,0.00,,,0.00,meteohub,2013-01-27 05:03:00,
2013-01-27 00:08:00,54.1,53.2,30.26,NE,45,0.0,0.0,97,0.00,,,0.00,meteohub,2013-01-27 05:08:00,
2013-01-27 00:13:00,54.0,53.1,30.26,NE,45,0.0,0.0,97,0.00,,,0.00,meteohub,2013-01-27 05:13:00,
2013-01-27 00:17:00,54.0,53.1,30.26,NE,45,0.0,0.0,97,0.00,,,0.00,meteohub,2013-01-27 05:17:00,
2013-01-27 00:22:00,53.8,52.9,30.26,NE,45,0.0,0.0,97,0.00,,,0.00,meteohub,2013-01-27 05:22:00,
2013-01-27 00:27:00,53.8,52.9,30.25,NE,45,0.0,0.0,97,0.00,,,0.00,meteohub,2013-01-27 05:27:00,
2013-01-27 00:32:00,53.8,52.9,30.26,NE,45,0.0,0.0,97,0.00,,,0.00,meteohub,2013-01-27 05:32:00,
2013-01-27 00:37:00,53.8,52.9,30.25,NE,45,0.0,0.0,97,0.00,,,0.00,meteohub,2013-01-27 05:37:00,
2013-01-27 00:42:00,53.8,52.9,30.25,SE,135,0.0,0.0,97,0.00,,,0.00,meteohub,2013-01-27 05:42:00,
2013-01-27 00:47:00,53.8,52.9,30.26,East,90,0.0,0.0,97,0.00,,,0.00,meteohub,2013-01-27 05:47:00,
2013-01-27 00:52:00,53.8,52.9,30.25,East,90,0.0,0.0,97,0.00,,,0.00,meteohub,2013-01-27 05:52:00,
2013-01-27 00:57:00,53.8,52.9,30.25,West,270,0.0,0.0,97,0.00,,,0.00,meteohub,2013-01-27 05:57:00,
2013-01-27 01:02:00,53.8,52.9,30.25,West,270,0.0,0.0,97,0.00,,,0.00,meteohub,2013-01-27 06:02:00,
2013-01-27 01:07:00,53.8,52.9,30.26,West,270,0.0,0.0,97,0.00,,,0.00,meteohub,2013-01-27 06:07:00,
2013-01-27 01:12:00,53.8,52.9,30.26,West,270,0.0,0.0,97,0.00,,,0.00,meteohub,2013-01-27 06:12:00,
2013-01-27 01:17:00,53.8,52.9,30.26,SE,135,0.0,0.0,97,0.00,,,0.00,meteohub,2013-01-27 06:17:00,
2013-01-27 01:22:00,53.8,52.9,30.26,SE,135,0.0,0.0,97,0.00,,,0.00,meteohub,2013-01-27 06:22:00,
2013-01-27 01:27:00,53.8,52.9,30.26,SE,135,0.0,0.0,97,0.00,,,0.00,meteohub,2013-01-27 06:27:00,
2013-01-27 01:32:00,53.8,52.9,30.26,North,0,0.0,0.0,97,0.00,,,0.00,meteohub,2013-01-27 06:32:00,
2013-01-27 01:37:00,53.6,52.7,30.26,North,0,0.0,0.0,97,0.00,,,0.00,meteohub,2013-01-27 06:37:00,
2013-01-27 01:42:00,53.6,52.7,30.26,North,0,0.0,0.0,97,0.00,,,0.00,meteohub,2013-01-27 06:42:00,
2013-01-27 01:47:00,53.6,52.7,30.26,North,0,0.0,0.0,97,0.00,,,0.00,meteohub,2013-01-27 06:47:00,
2013-01-27 01:52:00,53.2,52.7,30.26,North,0,0.0,0.0,98,0.00,,,0.00,meteohub,2013-01-27 06:52:00,
2013-01-27 01:57:00,53.2,52.7,30.26,North,0,0.0,0.0,98,0.00,,,0.00,meteohub,2013-01-27 06:57:00,
2013-01-27 02:02:00,53.1,52.5,30.26,North,0,0.0,0.0,98,0.00,,,0.00,meteohub,2013-01-27 07:02:00,
2013-01-27 02:07:00,53.1,52.5,30.26,North,0,0.0,0.0,98,0.00,,,0.00,meteohub,2013-01-27 07:07:00,
2013-01-27 02:13:00,52.9,52.3,30.26,North,0,0.0,0.0,98,0.00,,,0.00,meteohub,2013-01-27 07:13:00,
2013-01-27 02:19:00,52.9,52.3,30.26,North,0,0.0,0.0,98,0.00,,,0.00,meteohub,2013-01-27 07:19:00,
2013-01-27 02:24:00,52.7,52.2,30.26,North,0,0.0,0.0,98,0.00,,,0.00,meteohub,2013-01-27 07:24:00,
2013-01-27 02:29:00,52.7,52.2,30.26,North,0,0.0,0.0,98,0.00,,,0.00,meteohub,2013-01-27 07:29:00,
2013-01-27 02:34:00,52.7,52.2,30.26,North,0,0.0,0.0,98,0.00,,,0.00,meteohub,2013-01-27 07:34:00,
2013-01-27 02:39:00,52.7,52.2,30.26,North,0,0.0,0.0,98,0.00,,,0.00,meteohub,2013-01-27 07:39:00,
2013-01-27 02:44:00,52.7,52.2,30.25,North,0,0.0,0.0,98,0.00,,,0.00,meteohub,2013-01-27 07:44:00,
2013-01-27 02:49:00,52.7,52.2,30.26,North,0,0.0,0.0,98,0.00,,,0.00,meteohub,2013-01-27 07:49:00,
2013-01-27 02:54:00,52.5,52.0,30.26,North,0,0.0,0.0,98,0.00,,,0.00,meteohub,2013-01-27 07:54:00,
2013-01-27 02:59:00,52.5,52.0,30.26,North,0,0.0,0.0,98,0.00,,,0.00,meteohub,2013-01-27 07:59:00,
2013-01-27 03:04:00,52.5,52.0,30.26,North,0,0.0,0.0,98,0.00,,,0.00,meteohub,2013-01-27 08:04:00,
2013-01-27 03:09:00,52.5,52.0,30.26,North,0,0.0,0.0,98,0.00,,,0.00,meteohub,2013-01-27 08:09:00,
2013-01-27 03:14:00,52.5,52.0,30.26,North,0,0.0,0.0,98,0.00,,,0.00,meteohub,2013-01-27 08:14:00,
2013-01-27 03:19:00,52.5,52.0,30.26,North,0,0.0,0.0,98,0.00,,,0.00,meteohub,2013-01-27 08:19:00,
2013-01-27 03:24:00,52.5,52.0,30.26,North,0,0.0,0.0,98,0.00,,,0.00,meteohub,2013-01-27 08:24:00,
2013-01-27 03:29:00,52.5,52.0,30.26,North,0,0.0,0.0,98,0.00,,,0.00,meteohub,2013-01-27 08:29:00,
2013-01-27 03:34:00,52.5,52.0,30.26,North,0,0.0,0.0,98,0.00,,,0.00,meteohub,2013-01-27 08:34:00,
2013-01-27 03:39:00,52.5,52.0,30.26,North,0,0.0,0.0,98,0.00,,,0.00,meteohub,2013-01-27 08:39:00,
2013-01-27 03:44:00,52.5,52.0,30.26,North,0,0.0,0.0,98,0.00,,,0.00,meteohub,2013-01-27 08:44:00,
2013-01-27 03:49:00,52.3,51.8,30.26,North,0,0.0,0.0,98,0.00,,,0.00,meteohub,2013-01-27 08:49:00,
2013-01-27 03:54:00,52.3,51.8,30.26,North,0,0.0,0.0,98,0.00,,,0.00,meteohub,2013-01-27 08:54:00,
2013-01-27 03:59:00,52.3,51.8,30.26,North,0,0.0,0.0,98,0.00,,,0.00,meteohub,2013-01-27 08:59:00,
2013-01-27 04:04:00,52.3,51.8,30.26,NW,315,0.0,0.0,98,0.00,,,0.00,meteohub,2013-01-27 09:04:00,
2013-01-27 04:09:00,52.3,51.8,30.26,NW,315,0.0,0.0,98,0.00,,,0.00,meteohub,2013-01-27 09:09:00,
2013-01-27 04:14:00,52.7,52.2,30.26,NW,315,0.0,0.0,98,0.00,,,0.00,meteohub,2013-01-27 09:14:00,
2013-01-27 04:20:00,52.9,52.3,30.26,NW,315,0.0,0.0,98,0.00,,,0.00,meteohub,2013-01-27 09:20:00,
2013-01-27 04:25:00,52.9,52.3,30.26,NW,315,0.0,0.0,98,0.00,,,0.00,meteohub,2013-01-27 09:25:00,
2013-01-27 04:30:00,52.9,52.3,30.26,NW,315,0.0,0.0,98,0.00,,,0.00,meteohub,2013-01-27 09:30:00,
2013-01-27 04:35:00,52.9,52.3,30.26,NW,315,0.0,0.0,98,0.00,,,0.00,meteohub,2013-01-27 09:35:00,
2013-01-27 04:40:00,52.7,52.2,30.26,NW,315,0.0,0.0,98,0.00,,,0.00,meteohub,2013-01-27 09:40:00,
2013-01-27 04:45:00,52.5,52.0,30.26,NW,315,0.0,0.0,98,0.00,,,0.00,meteohub,2013-01-27 09:45:00,
2013-01-27 04:50:00,52.3,51.8,30.26,NW,315,0.0,0.0,98,0.00,,,0.00,meteohub,2013-01-27 09:50:00,
2013-01-27 04:55:00,52.3,51.8,30.26,NW,315,0.0,0.0,98,0.00,,,0.00,meteohub,2013-01-27 09:55:00,
2013-01-27 05:00:00,52.3,51.8,30.26,NW,315,0.0,0.0,98,0.00,,,0.00,meteohub,2013-01-27 10:00:00,
2013-01-27 05:05:00,52.2,51.6,30.26,NW,315,0.0,0.0,98,0.00,,,0.00,meteohub,2013-01-27 10:05:00,
2013-01-27 05:10:00,52.0,51.4,30.26,NW,315,0.0,0.0,98,0.00,,,0.00,meteohub,2013-01-27 10:10:00,
2013-01-27 05:15:00,52.0,51.4,30.26,NW,315,0.0,0.0,98,0.00,,,0.00,meteohub,2013-01-27 10:15:00,
2013-01-27 05:20:00,52.0,51.4,30.26,NW,315,0.0,0.0,98,0.00,,,0.00,meteohub,2013-01-27 10:20:00,
2013-01-27 05:25:00,52.0,51.4,30.26,NW,315,0.0,0.0,98,0.00,,,0.00,meteohub,2013-01-27 10:25:00,
2013-01-27 05:30:00,52.0,51.4,30.27,NW,315,0.0,0.0,98,0.00,,,0.00,meteohub,2013-01-27 10:30:00,
2013-01-27 05:35:00,52.0,51.4,30.27,NW,315,0.0,0.0,98,0.00,,,0.00,meteohub,2013-01-27 10:35:00,
2013-01-27 05:40:00,52.0,51.4,30.26,NW,315,0.0,0.0,98,0.00,,,0.00,meteohub,2013-01-27 10:40:00,
2013-01-27 05:45:00,51.8,51.3,30.27,NW,315,0.0,0.0,98,0.00,,,0.00,meteohub,2013-01-27 10:45:00,
2013-01-27 05:50:00,51.8,51.3,30.27,NW,315,0.0,0.0,98,0.00,,,0.00,meteohub,2013-01-27 10:50:00,
2013-01-27 05:55:00,51.8,51.3,30.27,NW,315,0.0,0.0,98,0.00,,,0.00,meteohub,2013-01-27 10:55:00,
2013-01-27 06:00:00,51.8,51.3,30.27,NW,315,0.0,0.0,98,0.00,,,0.00,meteohub,2013-01-27 11:00:00,
2013-01-27 06:05:00,52.0,51.4,30.27,NW,315,0.0,0.0,98,0.00,,,0.00,meteohub,2013-01-27 11:05:00,
2013-01-27 06:11:00,51.8,51.3,30.27,NW,315,0.0,0.0,98,0.00,,,0.00,meteohub,2013-01-27 11:11:00,
2013-01-27 06:16:00,52.0,51.4,30.27,NW,315,0.0,0.0,98,0.00,,,0.00,meteohub,2013-01-27 11:16:00,
2013-01-27 06:21:00,52.0,51.4,30.27,NW,315,0.0,0.0,98,0.00,,,0.00,meteohub,2013-01-27 11:21:00,
2013-01-27 06:26:00,52.0,51.4,30.28,NW,315,0.0,0.0,98,0.00,,,0.00,meteohub,2013-01-27 11:26:00,
2013-01-27 06:31:00,51.8,51.3,30.27,NW,315,0.0,0.0,98,0.00,,,0.00,meteohub,2013-01-27 11:31:00,
2013-01-27 06:36:00,51.8,51.3,30.28,NW,315,0.0,0.0,98,0.00,,,0.00,meteohub,2013-01-27 11:36:00,
2013-01-27 06:41:00,52.0,51.4,30.28,NW,315,0.0,0.0,98,0.00,,,0.00,meteohub,2013-01-27 11:41:00,
2013-01-27 06:46:00,52.0,51.4,30.28,NW,315,0.0,0.0,98,0.00,,,0.00,meteohub,2013-01-27 11:46:00,
2013-01-27 06:51:00,52.0,51.4,30.28,NW,315,0.0,0.0,98,0.00,,,0.00,meteohub,2013-01-27 11:51:00,
2013-01-27 06:56:00,52.0,51.4,30.28,NW,315,0.0,0.0,98,0.00,,,0.00,meteohub,2013-01-27 11:56:00,
2013-01-27 07:01:00,52.0,51.4,30.28,NW,315,0.0,0.0,98,0.00,,,0.00,meteohub,2013-01-27 12:01:00,
2013-01-27 07:06:00,52.0,51.4,30.28,NW,315,0.0,0.0,98,0.00,,,0.00,meteohub,2013-01-27 12:06:00,
2013-01-27 07:11:00,52.0,51.4,30.28,NW,315,0.0,0.0,98,0.00,,,0.00,meteohub,2013-01-27 12:11:00,
2013-01-27 07:16:00,52.0,51.4,30.28,NW,315,0.0,0.0,98,0.00,,,0.00,meteohub,2013-01-27 12:16:00,
2013-01-27 07:21:00,52.2,51.6,30.29,SE,135,0.0,0.0,98,0.00,,,0.00,meteohub,2013-01-27 12:21:00,
2013-01-27 07:26:00,52.3,51.8,30.29,SE,135,0.0,0.0,98,0.00,,,0.00,meteohub,2013-01-27 12:26:00,
2013-01-27 07:31:00,52.5,52.0,30.29,SE,135,0.0,0.0,98,0.00,,,0.00,meteohub,2013-01-27 12:31:00,
2013-01-27 07:36:00,52.7,52.2,30.29,SE,135,0.0,0.0,98,0.00,,,0.00,meteohub,2013-01-27 12:36:00,
2013-01-27 07:41:00,52.7,52.2,30.29,SE,135,0.0,0.0,98,0.00,,,0.00,meteohub,2013-01-27 12:41:00,
2013-01-27 07:46:00,52.9,52.3,30.29,SE,135,0.0,0.0,98,0.00,,,0.00,meteohub,2013-01-27 12:46:00,
2013-01-27 07:51:00,53.1,52.5,30.29,SE,135,0.0,0.0,98,0.00,,,0.00,meteohub,2013-01-27 12:51:00,
2013-01-27 07:57:00,53.2,52.7,30.30,SE,135,0.0,0.0,98,0.00,,,0.00,meteohub,2013-01-27 12:57:00,
2013-01-27 08:02:00,53.6,52.7,30.30,SE,135,0.0,0.0,97,0.00,,,0.00,meteohub,2013-01-27 13:02:00,
2013-01-27 08:07:00,54.0,53.1,30.30,SE,135,0.0,0.0,97,0.00,,,0.00,meteohub,2013-01-27 13:07:00,
2013-01-27 08:12:00,54.3,53.4,30.30,SE,135,0.0,0.0,97,0.00,,,0.00,meteohub,2013-01-27 13:12:00,
2013-01-27 08:17:00,54.9,54.0,30.30,SE,135,0.0,0.0,97,0.00,,,0.00,meteohub,2013-01-27 13:17:00,
2013-01-27 08:22:00,55.2,54.3,30.30,NW,315,0.0,0.0,97,0.00,,,0.00,meteohub,2013-01-27 13:22:00,
2013-01-27 08:27:00,55.6,55.2,30.31,NW,315,0.0,0.0,99,0.00,,,0.00,meteohub,2013-01-27 13:27:00,
2013-01-27 08:32:00,55.9,55.6,30.30,WSW,248,0.0,0.0,99,0.00,,,0.00,meteohub,2013-01-27 13:32:00,
2013-01-27 08:37:00,56.3,55.9,30.31,SW,225,0.0,0.0,99,0.00,,,0.00,meteohub,2013-01-27 13:37:00,
2013-01-27 08:42:00,56.3,55.9,30.31,NE,45,2.0,0.0,99,0.00,,,0.00,meteohub,2013-01-27 13:42:00,
2013-01-27 08:47:00,56.3,55.9,30.31,North,0,2.0,2.0,99,0.00,,,0.00,meteohub,2013-01-27 13:47:00,
2013-01-27 08:52:00,56.5,56.1,30.31,NE,45,0.0,2.0,99,0.00,,,0.00,meteohub,2013-01-27 13:52:00,
2013-01-27 08:57:00,56.8,56.5,30.31,NW,315,0.0,2.0,99,0.00,,,0.00,meteohub,2013-01-27 13:57:00,
2013-01-27 09:02:00,57.2,56.8,30.32,North,0,2.0,2.0,99,0.00,,,0.00,meteohub,2013-01-27 14:02:00,
2013-01-27 09:07:00,57.4,57.0,30.32,NW,315,0.0,2.0,99,0.00,,,0.00,meteohub,2013-01-27 14:07:00,
2013-01-27 09:12:00,57.7,57.4,30.32,North,0,2.0,2.0,99,0.00,,,0.00,meteohub,2013-01-27 14:12:00,
2013-01-27 09:17:00,58.1,57.7,30.32,NE,45,0.0,2.0,99,0.00,,,0.00,meteohub,2013-01-27 14:17:00,
2013-01-27 09:22:00,58.6,58.3,30.32,NNW,338,2.0,2.0,99,0.00,,,0.00,meteohub,2013-01-27 14:22:00,
2013-01-27 09:27:00,59.4,59.0,30.32,NW,315,2.0,2.0,99,0.00,,,0.00,meteohub,2013-01-27 14:27:00,
2013-01-27 09:32:00,59.9,59.5,30.33,NW,315,1.0,2.0,99,0.00,,,0.00,meteohub,2013-01-27 14:32:00,
2013-01-27 09:37:00,60.6,60.3,30.33,North,0,2.0,2.0,99,0.00,,,0.00,meteohub,2013-01-27 14:37:00,
2013-01-27 09:42:00,61.3,60.8,30.33,NE,45,0.0,2.0,98,0.00,,,0.00,meteohub,2013-01-27 14:42:00,
2013-01-27 09:47:00,61.9,61.3,30.33,East,90,2.0,2.0,98,0.00,,,0.00,meteohub,2013-01-27 14:47:00,
2013-01-27 09:52:00,62.6,61.7,30.33,North,0,2.0,2.0,97,0.00,,,0.00,meteohub,2013-01-27 14:52:00,
2013-01-27 09:57:00,63.7,62.8,30.34,NE,45,2.0,2.0,97,0.00,,,0.00,meteohub,2013-01-27 14:57:00,
2013-01-27 10:02:00,64.4,63.9,30.34,North,0,1.0,2.0,98,0.00,,,0.00,meteohub,2013-01-27 15:02:00,
2013-01-27 10:07:00,65.5,64.2,30.33,North,0,2.0,2.0,96,0.00,,,0.00,meteohub,2013-01-27 15:07:00,
2013-01-27 10:12:00,66.7,63.7,30.33,North,0,2.0,2.0,90,0.00,,,0.00,meteohub,2013-01-27 15:12:00,
2013-01-27 10:17:00,67.6,64.0,30.33,East,90,2.0,2.0,88,0.00,,,0.00,meteohub,2013-01-27 15:17:00,
2013-01-27 10:22:00,68.4,63.3,30.33,East,90,2.0,2.0,84,0.00,,,0.00,meteohub,2013-01-27 15:22:00,
2013-01-27 10:27:00,69.3,63.9,30.34,NW,315,2.0,2.0,83,0.00,,,0.00,meteohub,2013-01-27 15:27:00,
2013-01-27 10:32:00,70.3,63.5,30.34,North,0,2.0,2.0,79,0.00,,,0.00,meteohub,2013-01-27 15:32:00,
2013-01-27 10:37:00,71.1,63.5,30.34,North,0,2.0,2.0,77,0.00,,,0.00,meteohub,2013-01-27 15:37:00,
2013-01-27 10:42:00,71.6,62.4,30.34,NW,315,2.0,3.0,73,0.00,,,0.00,meteohub,2013-01-27 15:42:00,
2013-01-27 10:47:00,72.1,62.6,30.34,North,0,2.0,3.0,72,0.00,,,0.00,meteohub,2013-01-27 15:47:00,
2013-01-27 10:52:00,73.0,63.1,30.34,NE,45,2.0,3.0,71,0.00,,,0.00,meteohub,2013-01-27 15:52:00,
2013-01-27 10:57:00,73.4,62.2,30.33,NE,45,3.0,3.0,68,0.00,,,0.00,meteohub,2013-01-27 15:57:00,
2013-01-27 11:02:00,73.8,62.6,30.33,NE,45,2.0,3.0,68,0.00,,,0.00,meteohub,2013-01-27 16:02:00,
2013-01-27 11:07:00,74.3,62.6,30.33,West,270,2.0,3.0,67,0.00,,,0.00,meteohub,2013-01-27 16:07:00,
2013-01-27 11:12:00,74.8,62.2,30.34,East,90,1.0,3.0,65,0.00,,,0.00,meteohub,2013-01-27 16:12:00,
2013-01-27 11:18:00,75.2,62.2,30.34,North,0,2.0,3.0,64,0.00,,,0.00,meteohub,2013-01-27 16:18:00,
2013-01-27 11:23:00,75.2,60.8,30.33,WSW,248,2.0,3.0,61,0.00,,,0.00,meteohub,2013-01-27 16:23:00,
2013-01-27 11:28:00,75.6,61.7,30.33,NW,315,2.0,3.0,62,0.00,,,0.00,meteohub,2013-01-27 16:28:00,
2013-01-27 11:33:00,75.9,61.0,30.33,South,180,2.0,3.0,60,0.00,,,0.00,meteohub,2013-01-27 16:33:00,
2013-01-27 11:38:00,76.1,60.3,30.33,North,0,2.0,3.0,58,0.00,,,0.00,meteohub,2013-01-27 16:38:00,
2013-01-27 11:43:00,76.5,60.6,30.33,East,90,2.0,3.0,58,0.00,,,0.00,meteohub,2013-01-27 16:43:00,
2013-01-27 11:48:00,76.8,61.0,30.32,NW,315,2.0,3.0,58,0.00,,,0.00,meteohub,2013-01-27 16:48:00,
2013-01-27 11:53:00,77.2,60.8,30.32,NW,315,2.0,3.0,57,0.00,,,0.00,meteohub,2013-01-27 16:53:00,
2013-01-27 11:58:00,77.7,61.3,30.32,North,0,2.0,3.0,57,0.00,,,0.00,meteohub,2013-01-27 16:58:00,
2013-01-27 12:03:00,78.3,61.7,30.32,NE,45,2.0,4.0,57,0.00,,,0.00,meteohub,2013-01-27 17:03:00,
2013-01-27 12:08:00,78.8,61.3,30.32,East,90,2.0,4.0,55,0.00,,,0.00,meteohub,2013-01-27 17:08:00,
2013-01-27 12:13:00,78.8,60.8,30.32,North,0,2.0,4.0,54,0.00,,,0.00,meteohub,2013-01-27 17:13:00,
2013-01-27 12:18:00,79.2,60.6,30.31,NW,315,2.0,3.0,53,0.00,,,0.00,meteohub,2013-01-27 17:18:00,
2013-01-27 12:23:00,79.5,60.8,30.31,West,270,2.0,3.0,53,0.00,,,0.00,meteohub,2013-01-27 17:23:00,
2013-01-27 12:28:00,80.1,60.8,30.30,East,90,2.0,3.0,52,0.00,,,0.00,meteohub,2013-01-27 17:28:00,
2013-01-27 12:33:00,79.7,60.4,30.30,NE,45,2.0,3.0,52,0.00,,,0.00,meteohub,2013-01-27 17:33:00,
2013-01-27 12:38:00,79.9,60.6,30.30,North,0,4.0,4.0,52,0.00,,,0.00,meteohub,2013-01-27 17:38:00,
2013-01-27 12:43:00,79.9,60.1,30.30,North,0,2.0,4.0,51,0.00,,,0.00,meteohub,2013-01-27 17:43:00,
2013-01-27 12:48:00,80.2,59.9,30.29,NW,315,3.0,4.0,50,0.00,,,0.00,meteohub,2013-01-27 17:48:00,
2013-01-27 12:53:00,80.6,60.3,30.29,North,0,3.0,4.0,50,0.00,,,0.00,meteohub,2013-01-27 17:53:00,
2013-01-27 12:58:00,80.6,59.2,30.29,NW,315,4.0,4.0,48,0.00,,,0.00,meteohub,2013-01-27 17:58:00,
2013-01-27 13:03:00,80.8,59.2,30.29,North,0,2.0,4.0,48,0.00,,,0.00,meteohub,2013-01-27 18:03:00,
2013-01-27 13:08:00,80.8,58.6,30.28,NW,315,3.0,4.0,47,0.00,,,0.00,meteohub,2013-01-27 18:08:00,
2013-01-27 13:13:00,81.1,59.0,30.28,SW,225,1.0,4.0,47,0.00,,,0.00,meteohub,2013-01-27 18:13:00,
2013-01-27 13:19:00,80.8,58.6,30.28,NW,315,3.0,3.0,47,0.00,,,0.00,meteohub,2013-01-27 18:19:00,
2013-01-27 13:24:00,80.4,59.5,30.28,SE,135,3.0,7.0,49,0.00,,,0.00,meteohub,2013-01-27 18:24:00,
2013-01-27 13:29:00,80.4,60.1,30.28,North,0,2.0,7.0,50,0.00,,,0.00,meteohub,2013-01-27 18:29:00,
2013-01-27 13:34:00,80.1,59.7,30.27,South,180,3.0,7.0,50,0.00,,,0.00,meteohub,2013-01-27 18:34:00,
2013-01-27 13:39:00,80.4,60.6,30.27,North,0,2.0,3.0,51,0.00,,,0.00,meteohub,2013-01-27 18:39:00,
2013-01-27 13:44:00,81.3,60.3,30.27,West,270,3.0,4.0,49,0.00,,,0.00,meteohub,2013-01-27 18:44:00,
2013-01-27 13:49:00,82.2,61.2,30.27,West,270,1.0,4.0,49,0.00,,,0.00,meteohub,2013-01-27 18:49:00,
2013-01-27 13:54:00,82.6,61.0,30.27,North,0,2.0,4.0,48,0.00,,,0.00,meteohub,2013-01-27 18:54:00,
2013-01-27 13:59:00,82.4,60.8,30.27,East,90,2.0,4.0,48,0.00,,,0.00,meteohub,2013-01-27 18:59:00,
2013-01-27 14:04:00,82.4,61.3,30.27,NE,45,2.0,4.0,49,0.00,,,0.00,meteohub,2013-01-27 19:04:00,
2013-01-27 14:09:00,82.9,61.2,30.27,North,0,2.0,3.0,48,0.00,,,0.00,meteohub,2013-01-27 19:09:00,
2013-01-27 14:14:00,83.1,60.8,30.27,NE,45,2.0,4.0,47,0.00,,,0.00,meteohub,2013-01-27 19:14:00,
2013-01-27 14:19:00,82.4,59.5,30.27,NE,45,2.0,4.0,46,0.00,,,0.00,meteohub,2013-01-27 19:19:00,
2013-01-27 14:24:00,81.7,59.5,30.27,East,90,4.0,4.0,47,0.00,,,0.00,meteohub,2013-01-27 19:24:00,
2013-01-27 14:29:00,81.1,60.8,30.27,NW,315,3.0,4.0,50,0.00,,,0.00,meteohub,2013-01-27 19:29:00,
2013-01-27 14:34:00,81.9,60.8,30.26,ENE,68,2.0,4.0,49,0.00,,,0.00,meteohub,2013-01-27 19:34:00,
2013-01-27 14:39:00,82.0,61.0,30.27,NW,315,4.0,4.0,49,0.00,,,0.00,meteohub,2013-01-27 19:39:00,
2013-01-27 14:44:00,81.3,59.7,30.26,NE,45,2.0,4.0,48,0.00,,,0.00,meteohub,2013-01-27 19:44:00,
2013-01-27 14:49:00,80.4,60.1,30.27,South,180,2.0,4.0,50,0.00,,,0.00,meteohub,2013-01-27 19:49:00,
2013-01-27 14:54:00,79.5,60.4,30.26,East,90,2.0,4.0,52,0.00,,,0.00,meteohub,2013-01-27 19:54:00,
2013-01-27 14:59:00,78.6,60.1,30.26,East,90,3.0,3.0,53,0.00,,,0.00,meteohub,2013-01-27 19:59:00,
2013-01-27 15:05:00,78.1,60.1,30.26,North,0,2.0,4.0,54,0.00,,,0.00,meteohub,2013-01-27 20:05:00,
2013-01-27 15:10:00,77.9,59.9,30.26,East,90,2.0,4.0,54,0.00,,,0.00,meteohub,2013-01-27 20:10:00,
2013-01-27 15:15:00,77.4,59.9,30.26,East,90,1.0,4.0,55,0.00,,,0.00,meteohub,2013-01-27 20:15:00,
2013-01-27 15:20:00,77.0,59.5,30.25,East,90,2.0,3.0,55,0.00,,,0.00,meteohub,2013-01-27 20:20:00,
2013-01-27 15:25:00,77.4,60.4,30.25,East,90,3.0,3.0,56,0.00,,,0.00,meteohub,2013-01-27 20:25:00,
2013-01-27 15:30:00,77.7,60.3,30.26,East,90,4.0,4.0,55,0.00,,,0.00,meteohub,2013-01-27 20:30:00,
2013-01-27 15:35:00,77.9,60.4,30.26,WNW,293,3.0,4.0,55,0.00,,,0.00,meteohub,2013-01-27 20:35:00,
2013-01-27 15:40:00,77.9,59.9,30.25,East,90,2.0,4.0,54,0.00,,,0.00,meteohub,2013-01-27 20:40:00,
2013-01-27 15:45:00,77.9,59.9,30.26,SE,135,2.0,4.0,54,0.00,,,0.00,meteohub,2013-01-27 20:45:00,
2013-01-27 15:50:00,78.1,60.1,30.26,East,90,3.0,4.0,54,0.00,,,0.00,meteohub,2013-01-27 20:50:00,
2013-01-27 15:55:00,78.1,60.1,30.25,South,180,2.0,4.0,54,0.00,,,0.00,meteohub,2013-01-27 20:55:00,
2013-01-27 16:00:00,78.1,60.6,30.26,NW,315,4.0,4.0,55,0.00,,,0.00,meteohub,2013-01-27 21:00:00,
2013-01-27 16:05:00,78.1,60.6,30.26,North,0,4.0,4.0,55,0.00,,,0.00,meteohub,2013-01-27 21:05:00,
2013-01-27 16:10:00,78.1,61.2,30.26,NE,45,4.0,6.0,56,0.00,,,0.00,meteohub,2013-01-27 21:10:00,
2013-01-27 16:15:00,77.7,60.8,30.26,NE,45,6.0,6.0,56,0.00,,,0.00,meteohub,2013-01-27 21:15:00,
2013-01-27 16:20:00,76.8,61.3,30.26,SE,135,2.0,6.0,59,0.00,,,0.00,meteohub,2013-01-27 21:20:00,
2013-01-27 16:25:00,76.3,61.3,30.27,SE,135,2.0,6.0,60,0.00,,,0.00,meteohub,2013-01-27 21:25:00,
2013-01-27 16:30:00,76.1,61.7,30.27,NE,45,3.0,6.0,61,0.00,,,0.00,meteohub,2013-01-27 21:30:00,
2013-01-27 16:35:00,75.9,61.5,30.27,East,90,3.0,4.0,61,0.00,,,0.00,meteohub,2013-01-27 21:35:00,
2013-01-27 16:40:00,76.6,62.2,30.27,SE,135,2.0,4.0,61,0.00,,,0.00,meteohub,2013-01-27 21:40:00,
2013-01-27 16:45:00,76.6,61.7,30.27,NE,45,4.0,7.0,60,0.00,,,0.00,meteohub,2013-01-27 21:45:00,
2013-01-27 16:50:00,76.3,61.9,30.27,East,90,3.0,7.0,61,0.00,,,0.00,meteohub,2013-01-27 21:50:00,
2013-01-27 16:56:00,75.7,62.2,30.27,East,90,2.0,7.0,63,0.00,,,0.00,meteohub,2013-01-27 21:56:00,
2013-01-27 17:01:00,75.7,62.8,30.28,South,180,3.0,5.0,64,0.00,,,0.00,meteohub,2013-01-27 22:01:00,
2013-01-27 17:06:00,75.4,62.4,30.28,East,90,2.0,5.0,64,0.00,,,0.00,meteohub,2013-01-27 22:06:00,
2013-01-27 17:11:00,75.0,62.4,30.28,SE,135,4.0,6.0,65,0.00,,,0.00,meteohub,2013-01-27 22:11:00,
2013-01-27 17:16:00,74.7,62.6,30.28,NW,315,2.0,6.0,66,0.00,,,0.00,meteohub,2013-01-27 22:16:00,
2013-01-27 17:21:00,74.3,62.2,30.29,East,90,4.0,6.0,66,0.00,,,0.00,meteohub,2013-01-27 22:21:00,
2013-01-27 17:26:00,73.8,61.7,30.29,NE,45,4.0,4.0,66,0.00,,,0.00,meteohub,2013-01-27 22:26:00,
2013-01-27 17:31:00,73.2,61.5,30.29,ESE,113,2.0,4.0,67,0.00,,,0.00,meteohub,2013-01-27 22:31:00,
2013-01-27 17:36:00,72.9,61.7,30.29,East,90,3.0,4.0,68,0.00,,,0.00,meteohub,2013-01-27 22:36:00,
2013-01-27 17:41:00,72.5,62.2,30.30,SE,135,4.0,4.0,70,0.00,,,0.00,meteohub,2013-01-27 22:41:00,
2013-01-27 17:46:00,72.1,62.6,30.30,NE,45,2.0,4.0,72,0.00,,,0.00,meteohub,2013-01-27 22:46:00,
2013-01-27 17:51:00,71.8,62.2,30.30,East,90,2.0,4.0,72,0.00,,,0.00,meteohub,2013-01-27 22:51:00,
2013-01-27 17:56:00,71.4,62.8,30.30,ESE,113,2.0,4.0,74,0.00,,,0.00,meteohub,2013-01-27 22:56:00,
2013-01-27 18:01:00,71.2,63.0,30.30,East,90,2.0,3.0,75,0.00,,,0.00,meteohub,2013-01-27 23:01:00,
2013-01-27 18:06:00,70.9,63.0,30.30,North,0,2.0,3.0,76,0.00,,,0.00,meteohub,2013-01-27 23:06:00,
2013-01-27 18:11:00,70.7,62.8,30.31,East,90,2.0,4.0,76,0.00,,,0.00,meteohub,2013-01-27 23:11:00,
2013-01-27 18:16:00,70.3,62.8,30.30,North,0,2.0,4.0,77,0.00,,,0.00,meteohub,2013-01-27 23:16:00,
2013-01-27 18:21:00,70.2,62.6,30.30,ESE,113,1.0,4.0,77,0.00,,,0.00,meteohub,2013-01-27 23:21:00,
2013-01-27 18:26:00,69.8,62.6,30.30,East,90,2.0,3.0,78,0.00,,,0.00,meteohub,2013-01-27 23:26:00,
2013-01-27 18:31:00,69.6,63.1,30.31,NE,45,0.0,3.0,80,0.00,,,0.00,meteohub,2013-01-27 23:31:00,
2013-01-27 18:36:00,69.4,63.0,30.30,East,90,2.0,3.0,80,0.00,,,0.00,meteohub,2013-01-27 23:36:00,
2013-01-27 18:41:00,69.1,63.0,30.31,NE,45,2.0,3.0,81,0.00,,,0.00,meteohub,2013-01-27 23:41:00,
2013-01-27 18:47:00,68.9,62.8,30.31,East,90,2.0,2.0,81,0.00,,,0.00,meteohub,2013-01-27 23:47:00,
2013-01-27 18:52:00,68.7,63.0,30.31,NE,45,0.0,2.0,82,0.00,,,0.00,meteohub,2013-01-27 23:52:00,
2013-01-27 18:57:00,68.5,63.1,30.32,NE,45,0.0,2.0,83,0.00,,,0.00,meteohub,2013-01-27 23:57:00,
2013-01-27 19:02:00,68.4,63.0,30.31,East,90,0.0,2.0,83,0.00,,,0.00,meteohub,2013-01-28 00:02:00,
2013-01-27 19:07:00,68.2,62.8,30.31,East,90,1.0,2.0,83,0.00,,,0.00,meteohub,2013-01-28 00:07:00,
2013-01-27 19:12:00,68.0,62.6,30.32,East,90,0.0,2.0,83,0.00,,,0.00,meteohub,2013-01-28 00:12:00,
2013-01-27 19:17:00,67.8,63.1,30.32,East,90,0.0,2.0,85,0.00,,,0.00,meteohub,2013-01-28 00:17:00,
2013-01-27 19:22:00,67.5,62.8,30.32,East,90,0.0,2.0,85,0.00,,,0.00,meteohub,2013-01-28 00:22:00,
2013-01-27 19:27:00,67.5,62.8,30.32,East,90,0.0,2.0,85,0.00,,,0.00,meteohub,2013-01-28 00:27:00,
2013-01-27 19:32:00,67.3,63.0,30.32,East,90,0.0,2.0,86,0.00,,,0.00,meteohub,2013-01-28 00:32:00,
2013-01-27 19:37:00,67.1,62.8,30.32,East,90,0.0,1.0,86,0.00,,,0.00,meteohub,2013-01-28 00:37:00,
2013-01-27 19:42:00,66.9,62.6,30.32,East,90,0.0,0.0,86,0.00,,,0.00,meteohub,2013-01-28 00:42:00,
2013-01-27 19:47:00,66.7,62.4,30.32,East,90,0.0,0.0,86,0.00,,,0.00,meteohub,2013-01-28 00:47:00,
2013-01-27 19:52:00,66.6,62.2,30.32,NE,45,0.0,0.0,86,0.00,,,0.00,meteohub,2013-01-28 00:52:00,
2013-01-27 19:57:00,66.4,62.4,30.32,NE,45,0.0,0.0,87,0.00,,,0.00,meteohub,2013-01-28 00:57:00,
2013-01-27 20:02:00,66.2,62.2,30.32,NE,45,0.0,0.0,87,0.00,,,0.00,meteohub,2013-01-28 01:02:00,
2013-01-27 20:07:00,66.0,62.6,30.32,North,0,0.0,0.0,89,0.00,,,0.00,meteohub,2013-01-28 01:07:00,
2013-01-27 20:12:00,65.7,62.2,30.33,North,0,0.0,0.0,89,0.00,,,0.00,meteohub,2013-01-28 01:12:00,
2013-01-27 20:17:00,65.7,62.2,30.33,SW,225,0.0,0.0,89,0.00,,,0.00,meteohub,2013-01-28 01:17:00,
2013-01-27 20:22:00,65.5,62.4,30.33,East,90,0.0,0.0,90,0.00,,,0.00,meteohub,2013-01-28 01:22:00,
2013-01-27 20:28:00,65.5,62.4,30.33,NE,45,0.0,0.0,90,0.00,,,0.00,meteohub,2013-01-28 01:28:00,
2013-01-27 20:33:00,65.5,62.4,30.33,NE,45,0.0,0.0,90,0.00,,,0.00,meteohub,2013-01-28 01:33:00,
2013-01-27 20:38:00,65.5,62.8,30.33,East,90,0.0,0.0,91,0.00,,,0.00,meteohub,2013-01-28 01:38:00,
2013-01-27 20:43:00,65.5,62.8,30.33,East,90,0.0,0.0,91,0.00,,,0.00,meteohub,2013-01-28 01:43:00,
2013-01-27 20:48:00,65.7,63.0,30.34,East,90,1.0,0.0,91,0.00,,,0.00,meteohub,2013-01-28 01:48:00,
2013-01-27 20:53:00,65.7,63.0,30.34,East,90,1.0,2.0,91,0.00,,,0.00,meteohub,2013-01-28 01:53:00,
2013-01-27 20:58:00,65.7,63.0,30.34,NE,45,0.0,2.0,91,0.00,,,0.00,meteohub,2013-01-28 01:58:00,
2013-01-27 21:03:00,65.7,63.0,30.34,NE,45,0.0,2.0,91,0.00,,,0.00,meteohub,2013-01-28 02:03:00,
2013-01-27 21:08:00,65.5,62.8,30.34,NE,45,0.0,1.0,91,0.00,,,0.00,meteohub,2013-01-28 02:08:00,
2013-01-27 21:13:00,65.5,62.8,30.34,East,90,0.0,1.0,91,0.00,,,0.00,meteohub,2013-01-28 02:13:00,
2013-01-27 21:18:00,65.5,62.8,30.35,East,90,0.0,0.0,91,0.00,,,0.00,meteohub,2013-01-28 02:18:00,
2013-01-27 21:23:00,65.5,63.1,30.34,East,90,1.0,1.0,92,0.00,,,0.00,meteohub,2013-01-28 02:23:00,
2013-01-27 21:28:00,65.7,63.3,30.34,East,90,0.0,2.0,92,0.00,,,0.00,meteohub,2013-01-28 02:28:00,
2013-01-27 21:33:00,65.8,63.7,30.35,East,90,2.0,2.0,93,0.00,,,0.00,meteohub,2013-01-28 02:33:00,
2013-01-27 21:38:00,65.8,63.7,30.34,NE,45,1.0,2.0,93,0.00,,,0.00,meteohub,2013-01-28 02:38:00,
2013-01-27 21:43:00,66.0,63.9,30.34,East,90,0.0,2.0,93,0.00,,,0.00,meteohub,2013-01-28 02:43:00,
2013-01-27 21:48:00,66.0,63.9,30.34,East,90,0.0,2.0,93,0.00,,,0.00,meteohub,2013-01-28 02:48:00,
2013-01-27 21:53:00,66.0,63.9,30.34,East,90,0.0,2.0,93,0.00,,,0.00,meteohub,2013-01-28 02:53:00,
2013-01-27 21:59:00,65.8,63.7,30.34,East,90,0.0,0.0,93,0.00,,,0.00,meteohub,2013-01-28 02:59:00,
2013-01-27 22:04:00,65.8,63.7,30.34,East,90,0.0,0.0,93,0.00,,,0.00,meteohub,2013-01-28 03:04:00,
2013-01-27 22:09:00,65.8,63.7,30.34,North,0,2.0,0.0,93,0.00,,,0.00,meteohub,2013-01-28 03:09:00,
2013-01-27 22:14:00,65.8,64.0,30.33,East,90,2.0,2.0,94,0.00,,,0.00,meteohub,2013-01-28 03:14:00,
2013-01-27 22:19:00,65.8,64.0,30.34,East,90,0.0,2.0,94,0.00,,,0.00,meteohub,2013-01-28 03:19:00,
2013-01-27 22:24:00,65.7,63.9,30.34,East,90,1.0,2.0,94,0.00,,,0.00,meteohub,2013-01-28 03:24:00,
2013-01-27 22:29:00,65.7,63.9,30.34,NE,45,1.0,2.0,94,0.00,,,0.00,meteohub,2013-01-28 03:29:00,
2013-01-27 22:34:00,65.5,63.7,30.34,East,90,0.0,2.0,94,0.00,,,0.00,meteohub,2013-01-28 03:34:00,
2013-01-27 22:39:00,65.5,63.7,30.34,East,90,1.0,2.0,94,0.00,,,0.00,meteohub,2013-01-28 03:39:00,
2013-01-27 22:44:00,65.5,63.7,30.34,East,90,1.0,2.0,94,0.00,,,0.00,meteohub,2013-01-28 03:44:00,
2013-01-27 22:49:00,65.5,64.0,30.34,North,0,1.0,2.0,95,0.00,,,0.00,meteohub,2013-01-28 03:49:00,
2013-01-27 22:54:00,65.7,64.2,30.34,NE,45,1.0,2.0,95,0.00,,,0.00,meteohub,2013-01-28 03:54:00,
2013-01-27 22:59:00,65.7,64.2,30.34,East,90,1.0,2.0,95,0.00,,,0.00,meteohub,2013-01-28 03:59:00,
2013-01-27 23:04:00,65.8,64.4,30.34,East,90,1.0,2.0,95,0.00,,,0.00,meteohub,2013-01-28 04:04:00,
2013-01-27 23:09:00,65.8,64.0,30.34,North,0,2.0,2.0,94,0.00,,,0.00,meteohub,2013-01-28 04:09:00,
2013-01-27 23:14:00,65.8,64.0,30.34,East,90,1.0,2.0,94,0.00,,,0.00,meteohub,2013-01-28 04:14:00,
2013-01-27 23:19:00,66.0,64.2,30.34,East,90,2.0,2.0,94,0.00,,,0.00,meteohub,2013-01-28 04:19:00,
2013-01-27 23:24:00,66.0,64.2,30.33,East,90,1.0,2.0,94,0.00,,,0.00,meteohub,2013-01-28 04:24:00,
2013-01-27 23:29:00,66.0,64.2,30.33,East,90,1.0,2.0,94,0.00,,,0.00,meteohub,2013-01-28 04:29:00,
2013-01-27 23:34:00,66.0,63.9,30.32,NW,315,1.0,2.0,93,0.00,,,0.00,meteohub,2013-01-28 04:34:00,
2013-01-27 23:40:00,66.0,63.9,30.32,NE,45,1.0,2.0,93,0.00,,,0.00,meteohub,2013-01-28 04:40:00,
2013-01-27 23:45:00,66.0,63.9,30.33,NE,45,2.0,2.0,93,0.00,,,0.00,meteohub,2013-01-28 04:45:00,
2013-01-27 23:50:00,66.0,63.9,30.33,East,90,1.0,2.0,93,0.00,,,0.00,meteohub,2013-01-28 04:50:00,
2013-01-27 23:55:00,66.2,63.9,30.32,East,90,0.0,2.0,92,0.00,,,0.00,meteohub,2013-01-28 04:55:00,